Time;durP1;ratioP1;P1;durP2;ratioP2;P2;SDS_P1;SDS_P2;PMS_P1;PMS_P2;Temp;Humidity;BMP_temperature;BMP_pressure;BME280_temperature;BME280_humidity;BME280_pressure;Samples;Min_cycle;Max_cycle;Signal;HPM_P1;HPM_P2
2023/06/18 00:02:01;;;;;;;8.15;6.00;;;;;;;;;;6214458;28;20058;-76
2023/06/18 00:05:02;;;;;;;7.45;5.50;;;;;;;;;;6214795;28;20064;-73
2023/06/18 00:08:05;;;;;;;5.72;4.63;;;;;;;;;;6214200;28;20051;-73
2023/06/18 00:11:08;;;;;;;6.95;5.03;;;;;;;;;;6212858;28;20050;-74
2023/06/18 00:14:10;;;;;;;7.85;4.85;;;;;;;;;;6214754;28;20041;-74
2023/06/18 00:17:12;;;;;;;6.88;5.47;;;;;;;;;;6215732;28;20166;-74
2023/06/18 00:20:14;;;;;;;6.80;4.78;;;;;;;;;;6214760;28;20207;-75
2023/06/18 00:23:16;;;;;;;6.28;5.00;;;;;;;;;;6215402;28;20092;-74
2023/06/18 00:26:19;;;;;;;5.35;4.85;;;;;;;;;;6213686;28;20058;-73
2023/06/18 00:29:21;;;;;;;;;;;;;;;;;;6215859;28;20054;-74
2023/06/18 00:32:23;;;;;;;7.35;4.78;;;;;;;;;;6211017;28;19985;-73
2023/06/18 00:35:25;;;;;;;7.07;5.05;;;;;;;;;;6215713;28;20054;-73
2023/06/18 00:38:28;;;;;;;24.38;18.35;;;;;;;;;;6214389;28;20049;-74
2023/06/18 00:41:31;;;;;;;;;;;;;;;;;;6213265;28;20098;-74
2023/06/18 00:44:33;;;;;;;14.57;10.90;;;;;;;;;;6214754;28;19925;-75
2023/06/18 00:47:35;;;;;;;9.02;6.32;;;;;;;;;;6218203;28;20848;-75
2023/06/18 00:50:37;;;;;;;8.25;5.30;;;;;;;;;;6217467;28;20046;-76
2023/06/18 00:53:39;;;;;;;8.05;5.20;;;;;;;;;;6220087;28;20089;-74
2023/06/18 00:56:50;;;;;;;6.00;5.35;;;;;;;;;;6218685;28;20100;-74
2023/06/18 00:59:52;;;;;;;6.03;5.30;;;;;;;;;;6218862;28;20066;-74
2023/06/18 01:02:55;;;;;;;11.35;5.72;;;;;;;;;;6215741;28;20223;-74
2023/06/18 01:06:06;;;;;;;5.82;5.20;;;;;;;;;;6220515;28;20116;-75
2023/06/18 01:09:09;;;;;;;6.10;5.45;;;;;;;;;;6218362;28;20050;-73
2023/06/18 01:12:13;;;;;;;8.18;5.45;;;;;;;;;;6217671;28;20053;-74
2023/06/18 01:15:15;;;;;;;7.55;5.70;;;;;;;;;;6216699;28;20112;-74
2023/06/18 01:18:21;;;;;;;6.07;5.47;;;;;;;;;;6221195;28;20062;-74
2023/06/18 01:21:24;;;;;;;7.07;5.18;;;;;;;;;;6221282;28;20045;-74
2023/06/18 01:24:27;;;;;;;10.45;6.07;;;;;;;;;;6216689;28;20054;-74
2023/06/18 01:27:33;;;;;;;7.65;5.72;;;;;;;;;;6221223;28;20069;-76
2023/06/18 01:30:36;;;;;;;10.57;6.32;;;;;;;;;;6219885;28;20050;-76
2023/06/18 01:33:39;;;;;;;7.65;5.95;;;;;;;;;;6219244;28;20050;-74
2023/06/18 01:36:57;;;;;;;7.70;6.10;;;;;;;;;;6220829;28;20940;-73
2023/06/18 01:40:08;;;;;;;9.18;6.90;;;;;;;;;;6216169;28;20116;-74
2023/06/18 01:43:13;;;;;;;7.07;6.32;;;;;;;;;;6216073;28;20050;-76
2023/06/18 01:46:17;;;;;;;11.30;6.22;;;;;;;;;;6218742;28;20053;-76
2023/06/18 01:49:20;;;;;;;6.72;5.95;;;;;;;;;;6214762;28;20054;-74
2023/06/18 01:52:23;;;;;;;7.80;6.53;;;;;;;;;;6217148;28;20061;-74
2023/06/18 01:55:25;;;;;;;;;;;;;;;;;;6217297;28;20608;-74
2023/06/18 01:58:30;;;;;;;7.50;6.18;;;;;;;;;;6216889;28;19925;-76
2023/06/18 02:01:34;;;;;;;7.85;6.75;;;;;;;;;;6217699;28;20057;-74
2023/06/18 02:04:36;;;;;;;12.18;7.88;;;;;;;;;;6215335;28;20045;-74
2023/06/18 02:07:38;;;;;;;9.90;6.88;;;;;;;;;;6218653;28;20123;-73
2023/06/18 02:10:40;;;;;;;8.85;6.15;;;;;;;;;;6213304;28;20049;-74
2023/06/18 02:13:43;;;;;;;7.82;7.03;;;;;;;;;;6216871;28;20105;-77
2023/06/18 02:16:44;;;;;;;6.97;6.18;;;;;;;;;;6222148;28;20338;-73
2023/06/18 02:19:46;;;;;;;7.70;6.38;;;;;;;;;;6215629;28;20062;-73
2023/06/18 02:22:49;;;;;;;10.00;7.00;;;;;;;;;;6215794;28;20104;-74
2023/06/18 02:25:51;;;;;;;9.32;6.88;;;;;;;;;;6217172;28;20081;-74
2023/06/18 02:28:54;;;;;;;9.13;6.72;;;;;;;;;;6220522;28;20061;-74
2023/06/18 02:31:56;;;;;;;7.85;6.70;;;;;;;;;;6215474;28;20345;-74
2023/06/18 02:34:57;;;;;;;9.15;7.00;;;;;;;;;;6215220;28;20053;-74
2023/06/18 02:37:59;;;;;;;9.05;6.78;;;;;;;;;;6218851;28;20049;-74
2023/06/18 02:41:01;;;;;;;8.00;6.70;;;;;;;;;;6217268;28;20386;-74
2023/06/18 02:44:04;;;;;;;10.35;7.22;;;;;;;;;;6216471;28;20121;-74
2023/06/18 02:47:07;;;;;;;11.98;7.30;;;;;;;;;;6220981;28;20266;-74
2023/06/18 02:50:09;;;;;;;11.25;7.05;;;;;;;;;;6213994;28;20053;-74
2023/06/18 02:53:11;;;;;;;8.57;6.80;;;;;;;;;;6216304;28;20046;-74
2023/06/18 02:56:14;;;;;;;8.32;6.38;;;;;;;;;;6217838;28;20069;-73
2023/06/18 02:59:17;;;;;;;13.15;7.10;;;;;;;;;;6215121;28;20054;-74
2023/06/18 03:02:19;;;;;;;7.68;6.05;;;;;;;;;;6217905;28;20054;-73
2023/06/18 03:05:21;;;;;;;7.90;6.60;;;;;;;;;;6216395;28;20053;-74
2023/06/18 03:08:22;;;;;;;8.38;6.80;;;;;;;;;;6215319;28;20053;-74
2023/06/18 03:11:24;;;;;;;7.38;6.35;;;;;;;;;;6216109;28;20234;-75
2023/06/18 03:14:27;;;;;;;9.48;6.88;;;;;;;;;;6215889;28;20083;-73
2023/06/18 03:17:29;;;;;;;8.82;7.32;;;;;;;;;;6215948;28;20388;-76
2023/06/18 03:20:30;;;;;;;8.68;6.75;;;;;;;;;;6217857;28;20057;-74
2023/06/18 03:23:32;;;;;;;8.30;7.03;;;;;;;;;;6215219;28;20175;-73
2023/06/18 03:26:36;;;;;;;11.65;6.72;;;;;;;;;;6218273;28;20097;-74
2023/06/18 03:29:39;;;;;;;9.32;6.63;;;;;;;;;;6214427;28;20415;-73
2023/06/18 03:32:41;;;;;;;12.63;7.25;;;;;;;;;;6213646;28;20120;-73
2023/06/18 03:35:43;;;;;;;10.77;6.25;;;;;;;;;;6217043;28;20066;-73
2023/06/18 03:38:46;;;;;;;12.98;6.70;;;;;;;;;;6216111;28;20042;-73
2023/06/18 03:41:48;;;;;;;7.80;6.33;;;;;;;;;;6213483;28;20129;-75
2023/06/18 03:44:51;;;;;;;9.90;6.75;;;;;;;;;;6216044;28;20064;-74
2023/06/18 03:47:53;;;;;;;8.55;7.10;;;;;;;;;;6216797;28;20054;-76
2023/06/18 03:50:54;;;;;;;10.02;7.05;;;;;;;;;;6215357;28;20130;-74
2023/06/18 03:53:56;;;;;;;11.43;7.47;;;;;;;;;;6214120;28;20045;-74
2023/06/18 03:56:58;;;;;;;10.60;7.57;;;;;;;;;;6216689;28;20289;-74
2023/06/18 04:00:01;;;;;;;10.30;6.57;;;;;;;;;;6213355;28;20239;-74
2023/06/18 04:03:04;;;;;;;9.18;7.28;;;;;;;;;;6214793;28;20050;-75
2023/06/18 04:06:06;;;;;;;9.45;7.65;;;;;;;;;;6216444;28;20046;-74
2023/06/18 04:09:08;;;;;;;9.32;7.40;;;;;;;;;;6214834;28;20109;-74
2023/06/18 04:12:11;;;;;;;11.75;8.00;;;;;;;;;;6211500;28;20370;-74
2023/06/18 04:15:14;;;;;;;10.35;8.18;;;;;;;;;;6216411;28;20045;-75
2023/06/18 04:18:15;;;;;;;11.15;8.20;;;;;;;;;;6214988;28;20068;-74
2023/06/18 04:21:17;;;;;;;11.65;8.55;;;;;;;;;;6216613;28;20211;-74
2023/06/18 04:24:19;;;;;;;11.75;8.02;;;;;;;;;;6219040;28;20050;-74
2023/06/18 04:27:21;;;;;;;10.63;8.65;;;;;;;;;;6219346;28;20038;-75
2023/06/18 04:30:24;;;;;;;12.98;9.43;;;;;;;;;;6218776;28;20100;-75
2023/06/18 04:33:25;;;;;;;13.60;9.60;;;;;;;;;;6220161;28;20058;-74
2023/06/18 04:36:27;;;;;;;12.90;9.38;;;;;;;;;;6218839;28;20046;-74
2023/06/18 04:39:29;;;;;;;11.23;9.20;;;;;;;;;;6220537;28;20346;-76
2023/06/18 04:42:31;;;;;;;12.07;9.63;;;;;;;;;;6219253;28;20050;-75
2023/06/18 04:45:34;;;;;;;12.75;8.98;;;;;;;;;;6220105;28;20058;-76
2023/06/18 04:48:35;;;;;;;13.30;10.73;;;;;;;;;;6219278;28;20037;-75
2023/06/18 04:51:39;;;;;;;13.40;9.63;;;;;;;;;;6218515;28;20065;-75
2023/06/18 04:54:41;;;;;;;14.48;9.02;;;;;;;;;;6217690;28;20124;-74
2023/06/18 04:57:42;;;;;;;12.20;9.45;;;;;;;;;;6220282;28;20062;-76
2023/06/18 05:00:45;;;;;;;15.73;9.38;;;;;;;;;;6217965;28;20365;-74
2023/06/18 05:03:47;;;;;;;13.85;9.43;;;;;;;;;;6221407;28;20054;-73
2023/06/18 05:06:49;;;;;;;14.98;9.70;;;;;;;;;;6215916;28;20276;-75
2023/06/18 05:09:50;;;;;;;16.83;9.70;;;;;;;;;;6218491;28;20045;-75
2023/06/18 05:12:52;;;;;;;13.18;8.60;;;;;;;;;;6219385;28;20061;-74
2023/06/18 05:15:55;;;;;;;12.13;9.20;;;;;;;;;;6217020;28;20070;-74
2023/06/18 05:18:57;;;;;;;13.18;8.38;;;;;;;;;;6217220;28;20109;-74
2023/06/18 05:21:58;;;;;;;12.25;9.05;;;;;;;;;;6217030;28;20080;-74
2023/06/18 05:25:01;;;;;;;9.75;8.73;;;;;;;;;;6218735;28;20092;-74
2023/06/18 05:28:02;;;;;;;13.93;9.07;;;;;;;;;;6216315;28;20058;-75
2023/06/18 05:31:05;;;;;;;14.02;9.73;;;;;;;;;;6215449;28;20425;-72
2023/06/18 05:34:07;;;;;;;10.70;8.88;;;;;;;;;;6214119;28;20062;-76
2023/06/18 05:37:09;;;;;;;10.00;8.60;;;;;;;;;;6218973;28;20058;-74
2023/06/18 05:40:11;;;;;;;11.75;8.77;;;;;;;;;;6217223;28;20058;-75
2023/06/18 05:43:13;;;;;;;15.73;8.40;;;;;;;;;;6217852;28;20065;-75
2023/06/18 05:46:16;;;;;;;11.48;9.35;;;;;;;;;;6215180;28;20049;-76
2023/06/18 05:49:17;;;;;;;9.40;8.00;;;;;;;;;;6219702;28;20050;-76
2023/06/18 05:52:19;;;;;;;9.77;7.30;;;;;;;;;;6217761;28;20054;-73
2023/06/18 05:55:21;;;;;;;69.40;13.75;;;;;;;;;;6217372;28;20054;-75
2023/06/18 05:58:22;;;;;;;30.70;10.43;;;;;;;;;;6218596;28;20053;-77
2023/06/18 06:01:25;;;;;;;23.67;19.10;;;;;;;;;;6217299;28;20046;-73
2023/06/18 06:04:27;;;;;;;12.02;9.55;;;;;;;;;;6217776;28;20066;-76
2023/06/18 06:07:29;;;;;;;24.77;22.00;;;;;;;;;;6217613;28;20116;-74
2023/06/18 06:10:30;;;;;;;16.60;14.00;;;;;;;;;;6217553;28;20058;-75
2023/06/18 06:13:32;;;;;;;142.95;23.92;;;;;;;;;;6215599;28;20049;-75
2023/06/18 06:16:35;;;;;;;13.30;10.93;;;;;;;;;;6215749;28;20061;-77
2023/06/18 06:19:37;;;;;;;16.63;14.13;;;;;;;;;;6222569;28;20058;-77
2023/06/18 06:22:39;;;;;;;15.20;12.80;;;;;;;;;;6217713;28;20077;-79
2023/06/18 06:25:40;;;;;;;14.48;13.07;;;;;;;;;;6217223;28;20060;-78
2023/06/18 06:28:42;;;;;;;14.18;10.07;;;;;;;;;;6217818;28;20101;-78
2023/06/18 06:31:45;;;;;;;15.60;10.93;;;;;;;;;;6215571;28;20050;-77
2023/06/18 06:34:48;;;;;;;13.43;11.75;;;;;;;;;;6217948;28;20089;-78
2023/06/18 06:37:50;;;;;;;12.43;9.05;;;;;;;;;;6215493;28;20152;-77
2023/06/18 06:40:52;;;;;;;11.02;9.82;;;;;;;;;;6215077;28;20065;-77
2023/06/18 06:43:54;;;;;;;12.50;9.73;;;;;;;;;;6213532;28;20104;-78
2023/06/18 06:46:57;;;;;;;12.93;9.32;;;;;;;;;;6217477;28;20753;-77
2023/06/18 06:49:58;;;;;;;12.95;8.93;;;;;;;;;;6213074;28;20049;-76
2023/06/18 06:53:00;;;;;;;14.35;8.68;;;;;;;;;;6216623;28;20355;-79
2023/06/18 06:56:02;;;;;;;9.57;7.95;;;;;;;;;;6214895;28;20361;-76
2023/06/18 06:59:03;;;;;;;14.25;8.25;;;;;;;;;;6216061;28;20246;-75
2023/06/18 07:02:07;;;;;;;9.77;7.47;;;;;;;;;;6212354;28;20113;-75
2023/06/18 07:05:10;;;;;;;9.57;7.20;;;;;;;;;;6216808;28;20049;-76
2023/06/18 07:08:12;;;;;;;10.75;8.00;;;;;;;;;;6214552;28;20064;-77
2023/06/18 07:11:14;;;;;;;9.52;8.00;;;;;;;;;;6216182;28;20608;-76
2023/06/18 07:14:16;;;;;;;10.15;7.90;;;;;;;;;;6214109;28;20061;-76
2023/06/18 07:17:19;;;;;;;7.68;6.38;;;;;;;;;;6213754;28;20123;-79
2023/06/18 07:20:21;;;;;;;7.82;6.78;;;;;;;;;;6213495;28;20116;-75
2023/06/18 07:23:22;;;;;;;9.15;6.80;;;;;;;;;;6217651;28;20060;-77
2023/06/18 07:26:24;;;;;;;8.48;6.93;;;;;;;;;;6217578;28;20207;-78
2023/06/18 07:29:26;;;;;;;7.45;6.68;;;;;;;;;;6215845;28;20070;-77
2023/06/18 07:32:29;;;;;;;8.07;6.63;;;;;;;;;;6212485;28;20053;-78
2023/06/18 07:35:31;;;;;;;8.50;6.50;;;;;;;;;;6217220;28;20139;-76
2023/06/18 07:38:32;;;;;;;9.20;6.68;;;;;;;;;;6216132;28;20054;-77
2023/06/18 07:41:34;;;;;;;7.65;6.70;;;;;;;;;;6215403;28;20349;-77
2023/06/18 07:44:36;;;;;;;7.53;6.30;;;;;;;;;;6213287;28;20049;-76
2023/06/18 07:47:39;;;;;;;8.00;6.85;;;;;;;;;;6217503;28;20057;-78
2023/06/18 07:50:41;;;;;;;;;;;;;;;;;;6214491;28;20054;-76
2023/06/18 07:53:43;;;;;;;9.57;7.57;;;;;;;;;;6216262;28;19926;-75
2023/06/18 07:56:44;;;;;;;8.27;7.15;;;;;;;;;;6213745;28;20054;-78
2023/06/18 07:59:47;;;;;;;10.50;7.18;;;;;;;;;;6216206;28;20066;-79
2023/06/18 08:02:50;;;;;;;10.00;6.75;;;;;;;;;;6214603;28;20117;-77
2023/06/18 08:05:52;;;;;;;;;;;;;;;;;;6214548;28;20066;-77
2023/06/18 08:08:53;;;;;;;9.57;7.13;;;;;;;;;;6214749;28;19980;-78
2023/06/18 08:11:55;;;;;;;7.82;6.65;;;;;;;;;;6212582;28;20054;-76
2023/06/18 08:14:57;;;;;;;7.13;6.43;;;;;;;;;;6214840;28;20042;-78
2023/06/18 08:18:00;;;;;;;7.50;6.63;;;;;;;;;;6215460;28;20232;-82
2023/06/18 08:21:02;;;;;;;8.32;6.95;;;;;;;;;;6213118;28;20193;-77
2023/06/18 08:24:04;;;;;;;;;;;;;;;;;;6214180;28;20080;-77
2023/06/18 08:27:06;;;;;;;7.28;6.55;;;;;;;;;;6214922;28;19930;-77
2023/06/18 08:30:08;;;;;;;8.25;7.40;;;;;;;;;;6212961;28;20219;-77
2023/06/18 08:33:11;;;;;;;8.48;7.43;;;;;;;;;;6212842;28;20104;-78
2023/06/18 08:36:13;;;;;;;8.63;6.80;;;;;;;;;;6214671;28;20042;-80
2023/06/18 08:39:15;;;;;;;10.17;7.03;;;;;;;;;;6216675;28;20054;-76
2023/06/18 08:42:21;;;;;;;9.70;6.63;;;;;;;;;;6213980;28;20057;-77
2023/06/18 08:45:23;;;;;;;7.10;6.28;;;;;;;;;;6212923;28;20516;-79
2023/06/18 08:48:28;;;;;;;7.68;6.82;;;;;;;;;;6213377;28;20284;-77
2023/06/18 08:51:31;;;;;;;9.00;6.18;;;;;;;;;;6214275;28;20100;-78
2023/06/18 08:54:33;;;;;;;6.47;5.63;;;;;;;;;;6213781;28;20050;-76
2023/06/18 08:57:39;;;;;;;8.68;5.88;;;;;;;;;;6215014;28;20065;-78
2023/06/18 09:00:40;;;;;;;7.82;5.63;;;;;;;;;;6214279;28;20393;-80
2023/06/18 09:03:44;;;;;;;7.07;5.23;;;;;;;;;;6214761;28;20046;-78
2023/06/18 09:06:46;;;;;;;6.05;5.40;;;;;;;;;;6215101;28;20117;-78
2023/06/18 09:09:48;;;;;;;7.97;5.13;;;;;;;;;;6219495;28;20046;-77
2023/06/18 09:12:50;;;;;;;7.07;5.93;;;;;;;;;;6218463;28;20109;-78
2023/06/18 09:15:52;;;;;;;7.00;6.40;;;;;;;;;;6216961;28;20330;-76
2023/06/18 09:18:55;;;;;;;6.40;5.80;;;;;;;;;;6220087;28;20053;-76
2023/06/18 09:21:57;;;;;;;7.88;5.80;;;;;;;;;;6218554;28;20891;-78
2023/06/18 09:24:59;;;;;;;7.03;5.53;;;;;;;;;;6220496;28;21011;-76
2023/06/18 09:28:02;;;;;;;8.52;5.35;;;;;;;;;;6217080;28;20066;-80
2023/06/18 09:31:05;;;;;;;8.70;5.88;;;;;;;;;;6221322;28;20174;-80
2023/06/18 09:34:18;;;;;;;6.55;5.78;;;;;;;;;;6219119;28;20117;-81
2023/06/18 09:37:21;;;;;;;7.22;5.65;;;;;;;;;;6219043;28;20053;-85
2023/06/18 09:40:25;;;;;;;6.72;5.95;;;;;;;;;;6218950;28;20073;-86
2023/06/18 09:43:33;;;;;;;6.57;5.60;;;;;;;;;;6219175;28;20054;-90
2023/06/18 09:46:35;;;;;;;6.53;5.90;;;;;;;;;;6217156;28;20109;-83
2023/06/18 09:49:39;;;;;;;6.05;5.22;;;;;;;;;;6220025;28;20058;-81
2023/06/18 09:52:45;;;;;;;5.93;5.03;;;;;;;;;;6216251;28;20076;-80
2023/06/18 09:55:48;;;;;;;7.18;5.43;;;;;;;;;;6220710;28;20069;-82
2023/06/18 09:58:51;;;;;;;7.30;5.57;;;;;;;;;;6219121;28;20101;-79
2023/06/18 10:01:54;;;;;;;8.20;6.47;;;;;;;;;;6218636;28;20065;-81
2023/06/18 10:04:58;;;;;;;7.97;5.82;;;;;;;;;;6218049;28;20050;-79
2023/06/18 10:08:01;;;;;;;6.85;6.15;;;;;;;;;;6216805;28;20061;-82
2023/06/18 10:11:03;;;;;;;5.53;4.93;;;;;;;;;;6216143;28;20373;-77
2023/06/18 10:14:13;;;;;;;5.47;4.97;;;;;;;;;;6216025;28;20342;-80
2023/06/18 10:17:22;;;;;;;6.05;5.30;;;;;;;;;;6218479;28;20061;-79
2023/06/18 10:20:28;;;;;;;6.57;5.63;;;;;;;;;;6214432;28;20242;-78
2023/06/18 10:23:30;;;;;;;7.65;6.22;;;;;;;;;;6217151;28;20058;-78
2023/06/18 10:26:32;;;;;;;7.00;6.30;;;;;;;;;;6216829;28;20054;-78
2023/06/18 10:29:35;;;;;;;6.50;5.90;;;;;;;;;;6219567;28;20050;-79
2023/06/18 10:32:37;;;;;;;8.43;6.90;;;;;;;;;;6198985;28;20233;-79
2023/06/18 10:35:41;;;;;;;8.95;6.80;;;;;;;;;;6216439;28;20334;-77
2023/06/18 10:38:45;;;;;;;6.20;5.60;;;;;;;;;;6217619;28;20064;-79
2023/06/18 10:41:46;;;;;;;6.43;5.82;;;;;;;;;;6216126;28;20081;-78
2023/06/18 10:44:55;;;;;;;7.90;6.18;;;;;;;;;;6216274;28;20046;-82
2023/06/18 10:48:15;;;;;;;7.38;6.63;;;;;;;;;;6214887;28;20133;-78
2023/06/18 10:51:19;;;;;;;9.68;6.38;;;;;;;;;;6215253;28;20081;-77
2023/06/18 10:54:22;;;;;;;8.57;6.93;;;;;;;;;;6211868;28;20170;-76
2023/06/18 10:57:26;;;;;;;7.60;5.85;;;;;;;;;;6217292;28;20066;-77
2023/06/18 11:00:34;;;;;;;7.93;5.90;;;;;;;;;;6215419;28;20253;-77
2023/06/18 11:03:38;;;;;;;7.68;5.97;;;;;;;;;;6214427;28;20053;-77
2023/06/18 11:06:41;;;;;;;7.20;6.10;;;;;;;;;;6214439;28;20056;-76
2023/06/18 11:09:48;;;;;;;6.90;6.18;;;;;;;;;;6216638;28;20756;-77
2023/06/18 11:12:50;;;;;;;8.25;7.45;;;;;;;;;;6217440;28;20054;-74
2023/06/18 11:15:59;;;;;;;8.05;7.25;;;;;;;;;;6215930;28;20057;-78
2023/06/18 11:19:03;;;;;;;8.13;7.38;;;;;;;;;;6219936;28;20041;-77
2023/06/18 11:22:07;;;;;;;8.82;6.30;;;;;;;;;;6220096;28;20336;-81
2023/06/18 11:25:10;;;;;;;7.18;6.47;;;;;;;;;;6216477;28;20096;-78
2023/06/18 11:28:13;;;;;;;6.32;5.72;;;;;;;;;;6224285;28;20053;-77
2023/06/18 11:31:15;;;;;;;7.07;6.38;;;;;;;;;;6217915;28;20345;-77
2023/06/18 11:34:17;;;;;;;7.85;5.82;;;;;;;;;;6217582;28;20105;-77
2023/06/18 11:37:21;;;;;;;9.95;6.78;;;;;;;;;;6221630;28;20355;-77
2023/06/18 11:40:22;;;;;;;6.78;6.18;;;;;;;;;;6220714;28;20058;-78
2023/06/18 11:43:24;;;;;;;7.32;5.72;;;;;;;;;;6217737;28;20397;-76
2023/06/18 11:46:28;;;;;;;7.70;5.88;;;;;;;;;;6218245;28;20058;-76
2023/06/18 11:49:29;;;;;;;7.53;6.20;;;;;;;;;;6222122;28;20058;-76
2023/06/18 11:52:36;;;;;;;6.40;5.78;;;;;;;;;;6219295;28;20057;-78
2023/06/18 11:55:38;;;;;;;6.00;5.50;;;;;;;;;;6219292;28;20124;-75
2023/06/18 11:58:39;;;;;;;7.07;6.03;;;;;;;;;;6219556;28;20112;-75
2023/06/18 12:01:41;;;;;;;;;;;;;;;;;;6220321;28;20100;-75
2023/06/18 12:04:44;;;;;;;5.90;5.30;;;;;;;;;;6219935;28;20149;-76
2023/06/18 12:07:47;;;;;;;5.53;5.03;;;;;;;;;;6221479;28;20091;-75
2023/06/18 12:10:50;;;;;;;5.47;5.07;;;;;;;;;;6219916;28;20111;-74
2023/06/18 12:13:53;;;;;;;6.22;5.53;;;;;;;;;;6217686;28;20062;-74
2023/06/18 12:16:58;;;;;;;5.63;5.00;;;;;;;;;;6214373;28;20121;-76
2023/06/18 12:20:03;;;;;;;5.13;4.65;;;;;;;;;;6221304;28;20066;-74
2023/06/18 12:23:06;;;;;;;5.20;4.70;;;;;;;;;;6216381;28;20372;-74
2023/06/18 12:26:08;;;;;;;5.18;4.53;;;;;;;;;;6214389;28;20084;-74
2023/06/18 12:29:09;;;;;;;;;;;;;;;;;;6219567;28;20043;-75
2023/06/18 12:32:12;;;;;;;5.63;4.67;;;;;;;;;;6219519;28;19961;-74
2023/06/18 12:35:14;;;;;;;4.32;3.88;;;;;;;;;;6217414;28;20468;-74
2023/06/18 12:38:18;;;;;;;4.88;4.13;;;;;;;;;;6220929;28;20081;-75
2023/06/18 12:41:22;;;;;;;4.82;4.32;;;;;;;;;;6219367;28;20062;-75
2023/06/18 12:44:24;;;;;;;6.05;4.20;;;;;;;;;;6217419;28;20046;-76
2023/06/18 12:47:26;;;;;;;11.25;5.10;;;;;;;;;;6221747;28;20060;-74
2023/06/18 12:50:44;;;;;;;5.25;4.60;;;;;;;;;;6217318;28;20077;-76
2023/06/18 12:53:48;;;;;;;6.35;4.13;;;;;;;;;;6220573;28;20058;-75
2023/06/18 12:56:50;;;;;;;4.65;4.05;;;;;;;;;;6219557;28;20152;-75
2023/06/18 12:59:52;;;;;;;4.45;4.05;;;;;;;;;;6219350;28;20113;-75
2023/06/18 13:02:54;;;;;;;;;;;;;;;;;;6217647;28;20062;-76
2023/06/18 13:05:57;;;;;;;5.10;3.72;;;;;;;;;;6217796;28;20217;-74
2023/06/18 13:09:10;;;;;;;5.53;4.20;;;;;;;;;;6216317;28;20038;-75
2023/06/18 13:12:14;;;;;;;4.25;3.85;;;;;;;;;;6215632;28;20046;-76
2023/06/18 13:15:16;;;;;;;4.35;3.95;;;;;;;;;;6216634;28;20057;-75
2023/06/18 13:18:18;;;;;;;;;;;;;;;;;;6218243;28;20338;-74
2023/06/18 13:21:20;;;;;;;4.40;3.80;;;;;;;;;;6218491;28;20105;-76
2023/06/18 13:24:23;;;;;;;4.47;4.07;;;;;;;;;;6219085;28;20397;-75
2023/06/18 13:27:25;;;;;;;4.40;4.00;;;;;;;;;;6221718;28;20333;-75
2023/06/18 13:30:29;;;;;;;4.70;4.25;;;;;;;;;;6223435;28;20101;-77
2023/06/18 13:33:30;;;;;;;5.72;4.22;;;;;;;;;;6224691;28;20070;-76
2023/06/18 13:36:32;;;;;;;;;;;;;;;;;;6222987;28;20034;-76
2023/06/18 13:39:35;;;;;;;6.43;4.43;;;;;;;;;;6226050;28;19964;-75
2023/06/18 13:42:37;;;;;;;4.55;4.15;;;;;;;;;;6221472;28;20058;-75
2023/06/18 13:45:39;;;;;;;4.45;3.92;;;;;;;;;;6218100;28;20338;-76
2023/06/18 13:48:41;;;;;;;5.43;3.95;;;;;;;;;;6224361;28;20108;-77
2023/06/18 13:51:43;;;;;;;4.32;3.92;;;;;;;;;;6219029;28;20203;-77
2023/06/18 13:54:46;;;;;;;5.13;4.35;;;;;;;;;;6223102;28;20097;-79
2023/06/18 13:57:48;;;;;;;6.93;4.05;;;;;;;;;;6222896;28;20057;-75
2023/06/18 14:00:50;;;;;;;;;;;;;;;;;;6215464;28;20278;-77
2023/06/18 14:03:51;;;;;;;6.22;4.32;;;;;;;;;;6213632;28;19933;-78
2023/06/18 14:06:53;;;;;;;6.45;4.38;;;;;;;;;;6217201;28;20069;-75
2023/06/18 14:09:56;;;;;;;5.18;4.68;;;;;;;;;;6219234;28;20329;-75
2023/06/18 14:12:58;;;;;;;5.75;4.47;;;;;;;;;;6216307;28;20053;-76
2023/06/18 14:16:00;;;;;;;5.18;3.95;;;;;;;;;;6215354;28;20054;-75
2023/06/18 14:19:02;;;;;;;5.72;4.57;;;;;;;;;;6218710;28;20056;-74
2023/06/18 14:22:04;;;;;;;4.88;4.45;;;;;;;;;;6214447;28;20593;-76
2023/06/18 14:25:07;;;;;;;;;;;;;;;;;;6217044;28;20061;-76
2023/06/18 14:28:09;;;;;;;5.00;4.50;;;;;;;;;;6217224;28;19933;-73
2023/06/18 14:31:12;;;;;;;5.15;4.30;;;;;;;;;;6215799;28;20274;-77
2023/06/18 14:34:14;;;;;;;6.28;4.40;;;;;;;;;;6214458;28;20061;-75
2023/06/18 14:37:21;;;;;;;4.63;4.22;;;;;;;;;;6219246;28;20088;-75
2023/06/18 14:40:24;;;;;;;4.80;4.32;;;;;;;;;;6216467;28;20140;-75
2023/06/18 14:43:26;;;;;;;8.15;4.93;;;;;;;;;;6213734;28;20415;-77
2023/06/18 14:46:28;;;;;;;5.20;4.70;;;;;;;;;;6215069;28;20042;-79
2023/06/18 14:49:30;;;;;;;5.37;4.67;;;;;;;;;;6216122;28;20393;-75
2023/06/18 14:52:32;;;;;;;5.05;4.28;;;;;;;;;;6214094;28;20365;-79
2023/06/18 14:55:35;;;;;;;5.40;4.43;;;;;;;;;;6213738;28;20066;-76
2023/06/18 14:58:36;;;;;;;7.15;4.25;;;;;;;;;;6216608;28;20393;-77
2023/06/18 15:01:38;;;;;;;7.20;5.15;;;;;;;;;;6214256;28;20349;-77
2023/06/18 15:04:40;;;;;;;7.40;5.60;;;;;;;;;;6215489;28;20053;-77
2023/06/18 15:07:41;;;;;;;5.72;4.68;;;;;;;;;;6215929;28;20480;-75
2023/06/18 15:10:45;;;;;;;6.15;4.57;;;;;;;;;;6213674;28;20058;-82
2023/06/18 15:13:46;;;;;;;5.78;4.82;;;;;;;;;;6215198;28;20089;-76
2023/06/18 15:16:48;;;;;;;6.43;4.72;;;;;;;;;;6214741;28;20226;-77
2023/06/18 15:19:55;;;;;;;6.85;5.28;;;;;;;;;;6215007;28;20097;-77
2023/06/18 15:22:56;;;;;;;8.93;4.70;;;;;;;;;;6214877;28;20062;-77
2023/06/18 15:26:00;;;;;;;7.25;4.60;;;;;;;;;;6213096;28;20074;-77
2023/06/18 15:29:01;;;;;;;6.00;5.05;;;;;;;;;;6217248;28;20318;-76
2023/06/18 15:32:03;;;;;;;7.53;5.30;;;;;;;;;;6214580;28;20281;-75
2023/06/18 15:35:05;;;;;;;5.20;4.70;;;;;;;;;;6212823;28;20062;-77
2023/06/18 15:38:07;;;;;;;7.32;4.72;;;;;;;;;;6216006;28;20054;-77
2023/06/18 15:41:10;;;;;;;7.65;4.82;;;;;;;;;;6215561;28;20038;-76
2023/06/18 15:44:12;;;;;;;9.18;4.82;;;;;;;;;;6217875;28;20062;-76
2023/06/18 15:47:14;;;;;;;7.30;4.75;;;;;;;;;;6214233;28;20046;-75
2023/06/18 15:50:15;;;;;;;6.03;4.95;;;;;;;;;;6214191;28;20058;-76
2023/06/18 15:53:17;;;;;;;6.85;4.72;;;;;;;;;;6215864;28;20058;-76
2023/06/18 15:56:22;;;;;;;5.45;3.83;;;;;;;;;;6214649;28;20077;-75
2023/06/18 15:59:24;;;;;;;10.45;4.80;;;;;;;;;;6217052;28;20148;-76
2023/06/18 16:02:26;;;;;;;4.47;3.33;;;;;;;;;;6213962;28;20058;-76
2023/06/18 16:05:28;;;;;;;3.90;3.20;;;;;;;;;;6215559;28;20046;-79
2023/06/18 16:08:30;;;;;;;4.85;3.67;;;;;;;;;;6212902;28;20062;-74
2023/06/18 16:11:33;;;;;;;7.32;3.47;;;;;;;;;;6214151;28;20207;-75
2023/06/18 16:14:35;;;;;;;5.65;3.65;;;;;;;;;;6211684;28;20065;-78
2023/06/18 16:17:36;;;;;;;7.65;3.42;;;;;;;;;;6215112;28;20096;-76
2023/06/18 16:20:38;;;;;;;6.18;2.97;;;;;;;;;;6216018;28;20058;-77
2023/06/18 16:23:49;;;;;;;4.65;3.33;;;;;;;;;;6213380;28;20066;-77
2023/06/18 16:26:53;;;;;;;5.65;3.10;;;;;;;;;;6213890;28;20129;-78
2023/06/18 16:29:54;;;;;;;6.75;3.10;;;;;;;;;;6218416;28;20215;-76
2023/06/18 16:32:59;;;;;;;4.95;2.90;;;;;;;;;;6216032;28;20062;-77
2023/06/18 16:36:01;;;;;;;5.32;3.42;;;;;;;;;;6212882;28;20056;-77
2023/06/18 16:39:03;;;;;;;4.95;3.30;;;;;;;;;;6215434;28;20164;-79
2023/06/18 16:42:06;;;;;;;5.80;3.15;;;;;;;;;;6214291;28;20054;-78
2023/06/18 16:45:09;;;;;;;4.60;3.03;;;;;;;;;;6215861;28;20046;-78
2023/06/18 16:48:10;;;;;;;6.07;2.95;;;;;;;;;;6213536;28;20045;-77
2023/06/18 16:51:12;;;;;;;5.65;3.28;;;;;;;;;;6213277;28;20344;-79
2023/06/18 16:54:14;;;;;;;7.22;3.08;;;;;;;;;;6213137;28;20287;-79
2023/06/18 16:57:17;;;;;;;4.70;3.28;;;;;;;;;;6216942;28;20061;-78
2023/06/18 17:00:19;;;;;;;4.75;3.40;;;;;;;;;;6216901;28;20073;-80
2023/06/18 17:03:21;;;;;;;6.45;3.33;;;;;;;;;;6212238;28;20278;-78
2023/06/18 17:06:23;;;;;;;6.65;3.33;;;;;;;;;;6212783;28;20072;-77
2023/06/18 17:09:25;;;;;;;5.75;3.53;;;;;;;;;;6214254;28;20162;-76
2023/06/18 17:12:28;;;;;;;7.22;4.07;;;;;;;;;;6212762;28;20061;-80
2023/06/18 17:15:30;;;;;;;9.15;3.65;;;;;;;;;;6194545;28;20061;-76
2023/06/18 17:18:32;;;;;;;4.13;3.35;;;;;;;;;;6217208;28;20046;-78
2023/06/18 17:21:34;;;;;;;6.72;3.55;;;;;;;;;;6216732;28;20137;-77
2023/06/18 17:24:35;;;;;;;5.63;3.85;;;;;;;;;;6215835;28;20322;-78
2023/06/18 17:27:38;;;;;;;5.20;4.00;;;;;;;;;;6213718;28;20393;-77
2023/06/18 17:30:40;;;;;;;;;;;;;;;;;;6215928;28;20058;-78
2023/06/18 17:33:42;;;;;;;7.75;4.47;;;;;;;;;;6219061;28;19925;-78
2023/06/18 17:36:43;;;;;;;4.32;3.90;;;;;;;;;;6215134;28;20334;-79
2023/06/18 17:39:45;;;;;;;8.98;3.92;;;;;;;;;;6216873;28;20622;-78
2023/06/18 17:42:48;;;;;;;6.53;3.85;;;;;;;;;;6216431;28;20058;-78
2023/06/18 17:46:12;;;;;;;;;;;;;;;;;;6219816;28;20214;-78
2023/06/18 17:49:12;;;;;;;5.78;3.92;;;;;;;;;;6217761;28;19956;-76
2023/06/18 17:52:14;;;;;;;7.83;4.97;;;;;;;;;;6217394;28;20269;-80
2023/06/18 17:55:15;;;;;;;5.10;3.72;;;;;;;;;;6217616;28;20058;-77
2023/06/18 17:58:19;;;;;;;5.25;3.80;;;;;;;;;;6218369;28;20046;-77
2023/06/18 18:01:21;;;;;;;4.65;4.20;;;;;;;;;;6217177;28;20050;-76
2023/06/18 18:04:23;;;;;;;6.43;4.43;;;;;;;;;;6207582;28;20054;-75
2023/06/18 18:07:24;;;;;;;5.03;3.80;;;;;;;;;;6215582;28;20057;-76
2023/06/18 18:10:28;;;;;;;9.15;4.93;;;;;;;;;;6220195;28;20054;-75
2023/06/18 18:13:31;;;;;;;7.57;4.40;;;;;;;;;;6216192;28;20053;-75
2023/06/18 18:16:33;;;;;;;4.85;3.75;;;;;;;;;;6212215;28;20064;-75